• Join FlightAware (Why Join?)
  • Login
  • US Flag 
09:05AM EDT


 

Airport Tracker/Info


-or-


 

Live Flight TrackerFlight Track Log ✈ EJA996 ✈ 12-May-2013 ✈ KPDK - KSGJ

Flight Track Log - Related Links

Times and Time Zones

All times are in EDT time to prevent confusion due to time zone crossing. See the EJA996 flight status page for this flight to view local times or setup timezone preferences in your user account.

Time Position Orientation Groundspeed Altitude Reporting Facility
EDT Latitude Longitude Course Direction KTS MPH feet Rate Location/Type
04:07PM 33.9000 -84.3000 345° North 172 198 2,400  Level Atlanta TRACON
04:08PM 33.9500 -84.3167 345° North 199 229 4,800 1,800 Climbing Atlanta TRACON
04:09PM 33.9333 -84.3833 253° West 242 278 6,000 600 Climbing Atlanta TRACON
04:10PM 33.8667 -84.3833 180° South 240 276 6,000  Level Atlanta TRACON
04:11PM 33.8000 -84.3833 180° South 234 269 6,000  Level Atlanta TRACON
04:12PM 33.7333 -84.3833 180° South 276 318 6,000  Level Atlanta TRACON
04:13PM 33.6500 -84.3833 180° South 289 333 6,000  Level Atlanta TRACON
04:14PM 33.5667 -84.3833 180° South 292 336 6,000  Level Atlanta TRACON
04:15PM 33.4833 -84.3833 180° South 282 325 6,000 2,100 Level Atlanta TRACON
04:18PM 33.3411 -84.2553 143° Southeast 321 369 13,000 2,760 Climbing Atlanta Center
04:19PM 33.2661 -84.1731 137° Southeast 351 404 15,200 2,100 Climbing Atlanta Center
04:20PM 33.1700 -84.0858 143° Southeast 382 440 17,300 2,160 Climbing Atlanta Center
04:21PM 33.0761 -84.0017 143° Southeast 411 473 19,600 2,220 Climbing Atlanta Center
04:22PM 32.9781 -83.9150 143° Southeast 435 501 21,800 1,920 Climbing Atlanta Center
04:23PM 32.8756 -83.8186 142° Southeast 450 518 23,500 1,620 Climbing Atlanta Center
04:24PM 32.7669 -83.7228 143° Southeast 472 543 25,100 1,200 Climbing Atlanta Center
04:25PM 32.6581 -83.6219 142° Southeast 485 558 26,000 420 Climbing Atlanta Center
04:26PM 32.5386 -83.5067 141° Southeast 521 600 26,000  Level Atlanta Center
04:27PM 32.4169 -83.3942 142° Southeast 549 632 26,000  Level Atlanta Center
04:28PM 32.2953 -83.2794 141° Southeast 556 640 26,000  Level Atlanta Center
04:29PM 32.1736 -83.1678 142° Southeast 561 646 26,000 -300 Level Atlanta Center
04:30PM 32.0536 -83.0586 142° Southeast 561 646 25,400 -600 Descending Atlanta Center
04:30PM 32.0078 -83.0128 140° Southeast 554 638 25,100 -840 Descending Jacksonville Center
04:31PM 31.8867 -82.9025 142° Southeast 538 619 24,200 -960 Descending Jacksonville Center
04:32PM 31.7761 -82.8022 142° Southeast 517 595 23,200 -600 Descending Jacksonville Center
04:33PM 31.6694 -82.7022 141° Southeast 502 578 23,000 -120 Descending Jacksonville Center
04:34PM 31.5608 -82.6047 143° Southeast 497 572 23,000  Level Jacksonville Center
04:35PM 31.4519 -82.5028 141° Southeast 497 572 23,000  Level Jacksonville Center
04:36PM 31.3408 -82.4086 144° Southeast 497 572 23,000  Level Jacksonville Center
04:37PM 31.2319 -82.3069 141° Southeast 497 572 23,000  Level Jacksonville Center
04:38PM 31.1186 -82.2083 143° Southeast 508 585 23,000  Level Jacksonville Center
04:39PM 31.0033 -82.1047 142° Southeast 513 590 23,000  Level Jacksonville Center
04:40PM 30.9569 -82.0617 141° Southeast 511 588 23,000  Level Jacksonville Center
04:40PM 30.8919 -82.0042 143° Southeast 513 590 23,000 -420 Level Jacksonville Center
04:41PM 30.7931 -81.9131 142° Southeast 513 590 22,400 -1,200 Descending Jacksonville Center
04:42PM 30.6794 -81.8128 143° Southeast 501 577 20,800 -1,980 Descending Jacksonville Center
04:43PM 30.5681 -81.7153 143° Southeast 492 566 18,200 -2,280 Descending Jacksonville Center
04:44PM 30.4669 -81.6250 142° Southeast 431 496 16,000 -2,040 Descending Jacksonville Center
04:45PM 30.3975 -81.5631 142° Southeast 425 489 14,500 -2,280 Descending Jacksonville Center
04:46PM 30.2964 -81.4900 148° Southeast 375 432 11,900 -2,220 Descending Jacksonville Center
04:47PM 30.2083 -81.4506 159° South 330 380 10,100 -1,620 Descending Jacksonville Center
04:48PM 30.1553 -81.3792 131° Southeast 311 358 8,800 -1,680 Descending Jacksonville Center
04:49PM 30.0978 -81.2961 129° Southeast 310 357 6,600 -2,460 Descending Jacksonville Center
04:50PM 30.0531 -81.2297 128° Southeast 279 321 3,900 -2,040 Descending Jacksonville Center
04:51PM 29.9964 -81.1897 149° Southeast 211 243 3,000 -480 Descending Jacksonville Center
04:52PM 29.9483 -81.1931 183° South 176 203 3,000  Level Jacksonville Center
04:53PM 29.9067 -81.1961 184° South 179 206 3,000 -420 Level Jacksonville Center
04:54PM 29.9011 -81.2536 264° West 166 191 2,200 -1,020 Descending Jacksonville Center
04:55PM 29.9267 -81.2942 306° West 139 160 900 -1,320 Descending Jacksonville Center